Tolacon, Arizona
Current Conditions -  °F | °C
As of 1:53 PM on Friday 19 Dec 2014 (Local Time) from KCEZ Reporting Station
Few Clouds Few Clouds  
Wind Chill: 36°   Ceiling: Unl
Heat Index: 41°   Visibility: 10mi
Dew Point: 25°   Wind: 8mph
Humidity: 53%   Direction: 270°W
Pressure: 30.17"   Gusts: NA
Location:  36.7518°N, 109.365°W
Report Text: KCEZ 192053Z AUTO 27007KT 10SM FEW039 05/M04 A3017 RMK AO2 SLP223 T00501039 56026
Loading
Personal Weather Stations






























Interactive Weather Map New forecast layout! Learn more

10-Day Weather Forecast

Advertisements
Track Severe Weather on mobile